Time;durP1;ratioP1;P1;durP2;ratioP2;P2;SDS_P1;SDS_P2;PMS_P1;PMS_P2;Temp;Humidity;BMP_temperature;BMP_pressure;BME280_temperature;BME280_humidity;BME280_pressure;Samples;Min_cycle;Max_cycle;Signal;HPM_P1;HPM_P2
2022/03/30 00:01:07;;;;;;;9.70;6.80;;;19.20;99.90;;;;;;4245585;27;20213;-76
2022/03/30 00:03:10;;;;;;;11.55;6.38;;;19.20;99.90;;;;;;4241342;27;20233;-75
2022/03/30 00:05:12;;;;;;;8.75;6.50;;;19.20;99.90;;;;;;4244338;27;20590;-76
2022/03/30 00:07:15;;;;;;;8.40;6.95;;;19.20;99.90;;;;;;4245200;27;20605;-76
2022/03/30 00:09:18;;;;;;;7.88;6.72;;;19.20;99.90;;;;;;4241109;27;20258;-76
2022/03/30 00:11:22;;;;;;;7.72;6.93;;;19.20;99.90;;;;;;4242137;27;20274;-76
2022/03/30 00:13:24;;;;;;;9.13;7.07;;;19.20;99.90;;;;;;4244166;27;20209;-75
2022/03/30 00:15:26;;;;;;;8.68;6.65;;;19.20;99.90;;;;;;4243952;27;20234;-75
2022/03/30 00:17:31;;;;;;;8.80;6.85;;;19.20;99.90;;;;;;4244235;27;20217;-76
2022/03/30 00:19:34;;;;;;;7.70;6.90;;;19.10;99.90;;;;;;4244144;27;20281;-75
2022/03/30 00:21:37;;;;;;;8.00;6.43;;;19.20;99.90;;;;;;4244262;27;20213;-75
2022/03/30 00:23:40;;;;;;;8.95;6.90;;;19.10;99.90;;;;;;4243532;27;20705;-75
2022/03/30 00:25:43;;;;;;;9.45;7.05;;;19.10;99.90;;;;;;4244217;27;20216;-76
2022/03/30 00:27:46;;;;;;;8.75;6.35;;;19.10;99.90;;;;;;4242189;27;20259;-76
2022/03/30 00:29:49;;;;;;;8.60;6.88;;;19.10;99.90;;;;;;4243496;27;20262;-75
2022/03/30 00:31:51;;;;;;;10.30;6.95;;;19.10;99.90;;;;;;4243627;27;20638;-75
2022/03/30 00:33:53;;;;;;;9.10;6.70;;;19.10;99.90;;;;;;4243145;27;20213;-75
2022/03/30 00:35:56;;;;;;;7.20;6.22;;;19.10;99.90;;;;;;4242589;27;20213;-75
2022/03/30 00:37:58;;;;;;;10.07;7.13;;;19.10;99.90;;;;;;4240611;27;20615;-75
2022/03/30 00:40:03;;;;;;;8.43;6.55;;;19.10;99.90;;;;;;4242948;27;20960;-76
2022/03/30 00:42:15;;;;;;;10.13;6.85;;;19.10;99.90;;;;;;4243380;27;20205;-75
2022/03/30 00:44:17;;;;;;;8.32;7.32;;;19.10;99.90;;;;;;4241900;27;20233;-75
2022/03/30 00:46:20;;;;;;;7.68;6.65;;;19.00;99.90;;;;;;4242928;27;20277;-76
2022/03/30 00:48:23;;;;;;;9.80;7.10;;;19.10;99.90;;;;;;4242050;27;20209;-76
2022/03/30 00:50:25;;;;;;;8.60;6.47;;;19.10;99.90;;;;;;4241920;27;20213;-75
2022/03/30 00:52:27;;;;;;;7.53;6.82;;;19.10;99.90;;;;;;4242703;27;20209;-75
2022/03/30 00:54:30;;;;;;;7.60;6.40;;;19.10;99.90;;;;;;4243098;27;20213;-76
2022/03/30 00:56:36;;;;;;;9.00;6.93;;;19.00;99.90;;;;;;4242088;27;20209;-76
2022/03/30 00:58:38;;;;;;;7.57;6.85;;;19.00;99.90;;;;;;4243222;27;20713;-75
2022/03/30 01:00:41;;;;;;;7.70;6.28;;;19.00;99.90;;;;;;4242906;27;20217;-76
2022/03/30 01:02:45;;;;;;;10.20;7.10;;;19.00;99.90;;;;;;4241331;27;20281;-75
2022/03/30 01:04:48;;;;;;;8.30;6.90;;;19.10;99.90;;;;;;4242322;27;20266;-75
2022/03/30 01:06:51;;;;;;;8.70;7.10;;;19.00;99.90;;;;;;4242297;27;20266;-75
2022/03/30 01:08:53;;;;;;;7.88;6.78;;;19.10;99.90;;;;;;4242738;27;20213;-76
2022/03/30 01:10:57;;;;;;;7.63;6.63;;;19.00;99.90;;;;;;4242294;27;20269;-75
2022/03/30 01:13:05;;;;;;;6.80;6.07;;;19.00;99.90;;;;;;4242549;27;20273;-75
2022/03/30 01:15:09;;;;;;;8.18;6.95;;;19.00;99.90;;;;;;4242365;27;20664;-76
2022/03/30 01:17:11;;;;;;;8.40;6.65;;;19.00;99.90;;;;;;4242576;27;20274;-75
2022/03/30 01:19:14;;;;;;;8.77;6.90;;;19.00;99.90;;;;;;4241617;27;20217;-75
2022/03/30 01:21:18;;;;;;;7.05;5.95;;;19.00;99.90;;;;;;4241608;27;20270;-75
2022/03/30 01:23:20;;;;;;;9.20;6.80;;;18.90;99.90;;;;;;4242461;27;20293;-75
2022/03/30 01:25:23;;;;;;;9.43;7.07;;;19.00;99.90;;;;;;4240719;27;20208;-75
2022/03/30 01:27:25;;;;;;;7.55;6.65;;;19.00;99.90;;;;;;4240651;27;20316;-75
2022/03/30 01:34:04;;;;;;;8.05;7.07;;;18.90;99.90;;;;;;4229007;28;20205;-76
2022/03/30 01:36:06;;;;;;;8.23;6.75;;;19.00;99.90;;;;;;4239698;28;20266;-76
2022/03/30 01:38:10;;;;;;;8.05;7.03;;;18.90;99.90;;;;;;4242067;28;20238;-75
2022/03/30 01:40:13;;;;;;;8.63;6.75;;;18.90;99.90;;;;;;4242609;28;20209;-75
2022/03/30 01:42:16;;;;;;;7.93;6.65;;;18.90;99.90;;;;;;4242358;28;20221;-76
2022/03/30 01:44:18;;;;;;;7.57;6.70;;;18.90;99.90;;;;;;4242425;28;20692;-75
2022/03/30 01:46:21;;;;;;;9.25;7.30;;;18.90;99.90;;;;;;4241942;28;20209;-75
2022/03/30 01:48:24;;;;;;;7.35;6.32;;;18.90;99.90;;;;;;4241975;28;20618;-75
2022/03/30 01:50:29;;;;;;;8.90;6.95;;;18.90;99.90;;;;;;4239430;27;20688;-75
2022/03/30 01:52:31;;;;;;;9.38;7.28;;;18.90;99.90;;;;;;4240896;28;20271;-75
2022/03/30 01:54:38;;;;;;;8.20;6.90;;;18.90;99.90;;;;;;4242591;28;20213;-75
2022/03/30 01:56:40;;;;;;;10.15;7.20;;;18.90;99.90;;;;;;4241254;28;20390;-75
2022/03/30 01:58:44;;;;;;;7.85;6.55;;;18.90;99.90;;;;;;4242636;28;20247;-75
2022/03/30 02:00:47;;;;;;;8.80;6.43;;;18.90;99.90;;;;;;4242426;28;20775;-75
2022/03/30 02:02:49;;;;;;;8.02;6.80;;;18.90;99.90;;;;;;4241481;28;20648;-76
2022/03/30 02:04:52;;;;;;;7.28;6.32;;;18.80;99.90;;;;;;4239887;28;20619;-75
2022/03/30 02:06:54;;;;;;;9.80;7.07;;;18.80;99.90;;;;;;4242504;27;20213;-76
2022/03/30 02:08:57;;;;;;;10.05;6.82;;;18.80;99.80;;;;;;4244760;27;20285;-75
2022/03/30 02:11:00;;;;;;;8.02;7.15;;;18.80;99.80;;;;;;4244658;27;20258;-75
2022/03/30 02:13:02;;;;;;;7.97;7.05;;;18.80;99.80;;;;;;4245776;27;20251;-75
2022/03/30 02:15:06;;;;;;;10.65;6.82;;;18.80;99.80;;;;;;4245581;27;20221;-76
2022/03/30 02:17:08;;;;;;;9.25;6.97;;;18.80;99.80;;;;;;4245986;27;20254;-76
2022/03/30 02:19:12;;;;;;;9.00;7.15;;;18.80;99.80;;;;;;4244682;27;20213;-75
2022/03/30 02:21:15;;;;;;;9.55;6.70;;;18.80;99.80;;;;;;4246033;27;20269;-75
2022/03/30 02:23:17;;;;;;;8.38;7.05;;;18.80;99.90;;;;;;4246194;27;20214;-76
2022/03/30 02:25:20;;;;;;;8.55;7.20;;;18.80;99.90;;;;;;4245140;27;20270;-76
2022/03/30 02:27:24;;;;;;;7.80;7.00;;;18.80;99.80;;;;;;4244502;27;20290;-76
2022/03/30 02:29:26;;;;;;;8.80;6.82;;;18.80;99.80;;;;;;4246041;27;20277;-75
2022/03/30 02:31:29;;;;;;;7.22;6.53;;;18.70;99.70;;;;;;4245448;27;20254;-75
2022/03/30 02:33:31;;;;;;;8.30;6.78;;;18.80;99.70;;;;;;4244647;27;20213;-75
2022/03/30 02:35:33;;;;;;;7.57;6.88;;;18.80;99.90;;;;;;4244338;27;20209;-75
2022/03/30 02:37:36;;;;;;;8.30;7.15;;;18.70;99.60;;;;;;4245635;27;20242;-75
2022/03/30 02:39:38;;;;;;;8.23;6.30;;;18.70;99.60;;;;;;4245543;27;20217;-75
2022/03/30 02:41:41;;;;;;;8.52;6.70;;;18.70;99.70;;;;;;4244977;27;20225;-75
2022/03/30 02:43:44;;;;;;;9.60;7.30;;;18.70;99.50;;;;;;4244067;27;20232;-75
2022/03/30 02:45:47;;;;;;;8.32;6.78;;;18.70;99.60;;;;;;4243328;27;20221;-75
2022/03/30 02:50:09;;;;;;;7.93;7.13;;;18.70;99.40;;;;;;4244679;27;20193;-75
2022/03/30 02:52:12;;;;;;;7.68;6.90;;;18.70;99.50;;;;;;4244647;27;20213;-75
2022/03/30 02:54:14;;;;;;;8.73;7.25;;;18.70;99.50;;;;;;4244329;27;20209;-75
2022/03/30 02:56:16;;;;;;;7.93;6.95;;;18.70;99.60;;;;;;4243604;27;20213;-75
2022/03/30 02:58:19;;;;;;;7.28;6.45;;;18.70;99.50;;;;;;4244738;27;20729;-75
2022/03/30 03:00:23;;;;;;;7.93;7.13;;;18.60;99.40;;;;;;4242924;27;20213;-75
2022/03/30 03:02:25;;;;;;;8.55;6.93;;;18.70;99.30;;;;;;4244153;27;20630;-75
2022/03/30 03:04:28;;;;;;;8.30;7.07;;;18.60;99.40;;;;;;4243922;27;20232;-75
2022/03/30 03:06:30;;;;;;;8.25;7.10;;;18.60;99.60;;;;;;4244482;27;20209;-76
2022/03/30 03:08:32;;;;;;;8.32;7.00;;;18.70;99.40;;;;;;4244144;27;20722;-76
2022/03/30 03:10:37;;;;;;;9.23;7.60;;;18.60;99.30;;;;;;4244318;27;20257;-75
2022/03/30 03:12:40;;;;;;;7.88;7.05;;;18.60;99.20;;;;;;4242562;27;20225;-75
2022/03/30 03:14:42;;;;;;;9.85;7.57;;;18.60;99.20;;;;;;4241903;27;20216;-76
2022/03/30 03:16:46;;;;;;;7.57;6.78;;;18.60;99.20;;;;;;4244150;27;20277;-76
2022/03/30 03:18:48;;;;;;;8.90;6.85;;;18.60;99.10;;;;;;4243148;27;20665;-76
2022/03/30 03:20:50;;;;;;;9.25;6.80;;;18.60;99.10;;;;;;4244042;27;20217;-76
2022/03/30 03:22:53;;;;;;;11.82;7.20;;;18.60;99.20;;;;;;4244092;27;20217;-75
2022/03/30 03:24:55;;;;;;;8.13;7.18;;;18.60;99.50;;;;;;4243704;27;20282;-76
2022/03/30 03:26:59;;;;;;;8.40;7.30;;;18.60;99.50;;;;;;4243473;27;20217;-76
2022/03/30 03:29:02;;;;;;;8.00;7.10;;;18.60;99.10;;;;;;4244026;27;20221;-76
2022/03/30 03:31:04;;;;;;;10.52;7.32;;;18.60;99.20;;;;;;4243707;27;20262;-75
2022/03/30 03:33:09;;;;;;;8.63;6.72;;;18.60;99.10;;;;;;4242888;27;20209;-75
2022/03/30 03:35:12;;;;;;;8.68;7.20;;;18.60;99.10;;;;;;4242834;27;20209;-75
2022/03/30 03:37:15;;;;;;;8.20;6.93;;;18.60;99.20;;;;;;4243159;27;20205;-76
2022/03/30 03:39:17;;;;;;;9.13;7.28;;;18.60;99.20;;;;;;4240627;27;20217;-75
2022/03/30 03:41:20;;;;;;;8.43;7.22;;;18.60;99.10;;;;;;4243112;27;20213;-75
2022/03/30 03:43:22;;;;;;;7.68;6.80;;;18.60;98.90;;;;;;4243848;27;20254;-76
2022/03/30 03:45:25;;;;;;;9.40;6.80;;;18.60;99.00;;;;;;4240587;27;20245;-75
2022/03/30 03:47:28;;;;;;;7.43;6.57;;;18.60;99.00;;;;;;4242679;27;21775;-76
2022/03/30 03:49:32;;;;;;;12.05;6.90;;;18.60;98.90;;;;;;4243748;27;20645;-76
2022/03/30 03:51:34;;;;;;;7.53;6.65;;;18.60;99.00;;;;;;4238001;27;20216;-75
2022/03/30 03:53:36;;;;;;;8.07;6.60;;;18.60;98.90;;;;;;4231842;27;20257;-76
2022/03/30 03:55:38;;;;;;;8.63;7.00;;;18.60;98.80;;;;;;4242555;27;20259;-76
2022/03/30 03:57:42;;;;;;;9.00;7.05;;;18.60;98.90;;;;;;4241312;27;20270;-75
2022/03/30 03:59:44;;;;;;;8.57;6.75;;;18.60;98.90;;;;;;4243769;27;20213;-75
2022/03/30 04:01:46;;;;;;;7.28;6.43;;;18.60;98.70;;;;;;4244096;27;20665;-76
2022/03/30 04:03:49;;;;;;;8.40;7.28;;;18.60;98.80;;;;;;4242454;27;20625;-75
2022/03/30 04:05:52;;;;;;;7.40;6.70;;;18.60;98.90;;;;;;4242341;27;20234;-76
2022/03/30 04:07:55;;;;;;;8.65;7.28;;;18.50;98.80;;;;;;4243414;27;20258;-75
2022/03/30 04:09:57;;;;;;;8.25;7.05;;;18.50;98.70;;;;;;4241380;27;20217;-76
2022/03/30 04:11:59;;;;;;;7.68;6.88;;;18.60;98.70;;;;;;4242601;27;20266;-76
2022/03/30 04:14:02;;;;;;;8.32;7.07;;;18.60;98.90;;;;;;4241817;27;20649;-76
2022/03/30 04:16:05;;;;;;;7.32;6.30;;;18.60;98.60;;;;;;4242834;27;20213;-76
2022/03/30 04:18:08;;;;;;;9.50;7.00;;;18.50;98.60;;;;;;4242987;27;20212;-75
2022/03/30 04:20:11;;;;;;;7.88;6.35;;;18.50;98.70;;;;;;4243358;27;20994;-76
2022/03/30 04:22:15;;;;;;;8.32;7.20;;;18.50;98.60;;;;;;4242909;27;20305;-75
2022/03/30 04:24:18;;;;;;;10.73;7.10;;;18.50;98.60;;;;;;4242970;27;20213;-76
2022/03/30 04:26:20;;;;;;;8.68;7.25;;;18.50;98.50;;;;;;4241501;27;20213;-76
2022/03/30 04:28:23;;;;;;;7.65;6.90;;;18.50;98.70;;;;;;4242166;27;20209;-75
2022/03/30 04:30:25;;;;;;;7.70;6.85;;;18.50;98.50;;;;;;4242076;27;20217;-75
2022/03/30 04:32:28;;;;;;;9.15;6.97;;;18.50;98.40;;;;;;4242657;27;20364;-76
2022/03/30 04:34:30;;;;;;;7.78;6.45;;;18.50;98.50;;;;;;4243244;27;20298;-76
2022/03/30 04:36:32;;;;;;;8.90;6.57;;;18.50;98.60;;;;;;4242868;27;20262;-76
2022/03/30 04:38:36;;;;;;;8.65;7.43;;;18.50;98.30;;;;;;4242733;27;20213;-76
2022/03/30 04:40:38;;;;;;;7.75;6.10;;;18.50;98.50;;;;;;4242635;27;20277;-76
2022/03/30 04:42:41;;;;;;;8.50;6.85;;;18.50;98.60;;;;;;4242640;27;20317;-76
2022/03/30 04:44:43;;;;;;;6.97;6.28;;;18.50;98.30;;;;;;4242653;27;20290;-76
2022/03/30 04:46:47;;;;;;;8.35;7.05;;;18.50;98.40;;;;;;4242680;27;20225;-75
2022/03/30 04:48:49;;;;;;;9.05;6.78;;;18.50;98.30;;;;;;4243249;27;20224;-76
2022/03/30 04:50:52;;;;;;;8.13;7.13;;;18.50;98.40;;;;;;4242882;27;20221;-76
2022/03/30 04:52:54;;;;;;;11.82;7.43;;;18.50;98.30;;;;;;4242367;27;20217;-75
2022/03/30 04:54:57;;;;;;;10.15;6.90;;;18.50;98.40;;;;;;4239118;27;20202;-76
2022/03/30 04:57:00;;;;;;;8.38;6.65;;;18.50;98.20;;;;;;4241729;27;20216;-75
2022/03/30 04:59:02;;;;;;;7.82;7.03;;;18.40;98.10;;;;;;4242711;27;20267;-76
2022/03/30 05:01:04;;;;;;;9.27;7.45;;;18.40;98.30;;;;;;4243088;27;20293;-76
2022/03/30 05:03:07;;;;;;;8.43;6.72;;;18.50;98.30;;;;;;4240525;27;20314;-76
2022/03/30 05:05:10;;;;;;;9.88;6.97;;;18.40;98.10;;;;;;4242488;27;20622;-75
2022/03/30 05:07:14;;;;;;;10.23;6.95;;;18.40;98.30;;;;;;4242875;27;20213;-76
2022/03/30 05:09:16;;;;;;;8.27;6.88;;;18.50;98.00;;;;;;4242956;27;20268;-76
2022/03/30 05:11:20;;;;;;;8.95;6.43;;;18.50;98.50;;;;;;4242682;27;20209;-75
2022/03/30 05:13:22;;;;;;;8.68;6.78;;;18.50;98.30;;;;;;4242630;27;20213;-75
2022/03/30 05:15:25;;;;;;;8.10;6.30;;;18.50;98.20;;;;;;4242925;27;20217;-76
2022/03/30 05:17:27;;;;;;;10.05;6.65;;;18.50;98.20;;;;;;4241445;27;20213;-76
2022/03/30 05:19:29;;;;;;;8.95;6.65;;;18.50;98.20;;;;;;4242726;27;20213;-76
2022/03/30 05:21:32;;;;;;;9.02;6.47;;;18.40;98.10;;;;;;4241536;27;20213;-76
2022/03/30 05:23:36;;;;;;;7.45;6.25;;;18.50;98.00;;;;;;4242448;27;20216;-76
2022/03/30 05:25:38;;;;;;;7.45;6.57;;;18.40;98.10;;;;;;4242647;27;20288;-75
2022/03/30 05:27:42;;;;;;;9.20;6.45;;;18.50;98.30;;;;;;4240751;27;20270;-75
2022/03/30 05:29:45;;;;;;;9.13;7.00;;;18.50;98.10;;;;;;4240808;27;20730;-76
2022/03/30 05:31:47;;;;;;;9.45;6.47;;;18.50;98.20;;;;;;4242064;28;20236;-76
2022/03/30 05:33:49;;;;;;;7.25;6.18;;;18.50;98.00;;;;;;4240915;28;20205;-75
2022/03/30 05:35:52;;;;;;;10.20;7.22;;;18.50;98.00;;;;;;4242910;28;20258;-75
2022/03/30 05:37:54;;;;;;;9.40;6.85;;;18.50;98.10;;;;;;4242599;28;20252;-75
2022/03/30 05:39:57;;;;;;;9.38;6.05;;;18.50;98.20;;;;;;4241618;28;20205;-76
2022/03/30 05:41:59;;;;;;;7.82;6.43;;;18.50;97.80;;;;;;4242830;27;20221;-75
2022/03/30 05:44:03;;;;;;;9.52;6.22;;;18.50;97.80;;;;;;4244843;27;20673;-76
2022/03/30 05:46:06;;;;;;;8.93;6.65;;;18.40;98.00;;;;;;4245067;27;20304;-76
2022/03/30 05:48:09;;;;;;;8.27;6.38;;;18.40;97.90;;;;;;4246101;27;20635;-76
2022/03/30 05:50:11;;;;;;;9.07;6.40;;;18.50;98.00;;;;;;4245449;27;20254;-76
2022/03/30 05:52:14;;;;;;;8.15;6.32;;;18.40;97.90;;;;;;4229677;27;20280;-76
2022/03/30 05:54:17;;;;;;;8.63;6.45;;;18.40;98.00;;;;;;4246007;27;20652;-75
2022/03/30 05:56:59;;;;;;;8.90;6.70;;;18.40;98.00;;;;;;4243503;27;20262;-76
2022/03/30 05:58:41;;;;;;;8.68;6.20;;;18.50;98.10;;;;;;4244287;27;20273;-76
2022/03/30 06:00:45;;;;;;;7.75;6.45;;;18.50;97.80;;;;;;4243681;27;20217;-76
2022/03/30 06:02:47;;;;;;;8.40;6.43;;;18.40;98.00;;;;;;4243359;27;20221;-78
2022/03/30 06:04:50;;;;;;;8.30;6.10;;;18.50;98.30;;;;;;4245464;27;20266;-78
2022/03/30 06:06:54;;;;;;;9.43;6.32;;;18.40;97.80;;;;;;4245338;27;20629;-78
2022/03/30 06:08:56;;;;;;;9.20;6.50;;;18.50;98.00;;;;;;4244078;27;20217;-78
2022/03/30 06:10:58;;;;;;;7.57;6.50;;;18.50;98.00;;;;;;4244644;27;20209;-78
2022/03/30 06:13:02;;;;;;;7.13;5.93;;;18.50;98.10;;;;;;4245352;27;20217;-78
2022/03/30 06:15:05;;;;;;;9.45;6.68;;;18.50;98.00;;;;;;4245739;27;20221;-78
2022/03/30 06:17:10;;;;;;;8.27;6.60;;;18.50;98.00;;;;;;4245436;27;20213;-78
2022/03/30 06:19:13;;;;;;;7.75;5.80;;;18.40;98.00;;;;;;4245356;27;20201;-78
2022/03/30 06:21:16;;;;;;;8.95;6.50;;;18.50;98.00;;;;;;4244622;27;20270;-78
2022/03/30 06:23:18;;;;;;;10.02;6.57;;;18.50;98.00;;;;;;4245694;27;20216;-78
2022/03/30 06:25:24;;;;;;;8.80;6.15;;;18.50;97.80;;;;;;4244645;27;20683;-78
2022/03/30 06:27:26;;;;;;;8.05;6.32;;;18.50;97.90;;;;;;4244354;27;20236;-78
2022/03/30 06:29:28;;;;;;;9.35;6.55;;;18.50;97.70;;;;;;4245500;27;20254;-78
2022/03/30 06:31:31;;;;;;;9.68;6.47;;;18.50;97.90;;;;;;4244957;27;20272;-78
2022/03/30 06:33:35;;;;;;;8.63;6.13;;;18.50;98.00;;;;;;4243492;27;20256;-78
2022/03/30 06:35:38;;;;;;;9.20;6.47;;;18.50;97.90;;;;;;4245700;27;20209;-78
2022/03/30 06:37:40;;;;;;;8.93;6.70;;;18.50;98.00;;;;;;4244719;27;20229;-78
2022/03/30 06:39:43;;;;;;;7.20;5.75;;;18.50;98.00;;;;;;4245077;27;20213;-78
2022/03/30 06:41:45;;;;;;;8.07;5.90;;;18.50;97.80;;;;;;4243008;27;20262;-78
2022/03/30 06:43:47;;;;;;;11.73;6.43;;;18.50;98.00;;;;;;4245555;27;20217;-78
2022/03/30 06:45:50;;;;;;;8.88;6.35;;;18.50;98.10;;;;;;4243415;27;20653;-78
2022/03/30 06:47:52;;;;;;;9.63;6.40;;;18.50;98.00;;;;;;4245559;27;20262;-79
2022/03/30 06:49:56;;;;;;;9.90;6.43;;;18.50;98.00;;;;;;4243354;27;20269;-78
2022/03/30 06:51:58;;;;;;;9.95;6.68;;;18.50;98.00;;;;;;4241132;27;20266;-78
2022/03/30 06:54:01;;;;;;;9.65;6.38;;;18.50;98.20;;;;;;4242063;27;20270;-78
2022/03/30 06:56:03;;;;;;;13.15;7.03;;;18.50;97.40;;;;;;4244192;27;20629;-79
2022/03/30 06:58:06;;;;;;;15.93;6.88;;;18.40;97.30;;;;;;4241780;27;20221;-79
2022/03/30 07:00:12;;;;;;;16.63;8.05;;;18.40;97.60;;;;;;4242456;27;20616;-80
2022/03/30 07:02:14;;;;;;;14.30;7.03;;;18.50;97.30;;;;;;4243330;27;20217;-79
2022/03/30 07:04:16;;;;;;;12.90;7.43;;;18.30;97.50;;;;;;4240532;27;20217;-79
2022/03/30 07:06:20;;;;;;;16.48;7.57;;;18.40;98.10;;;;;;4235294;27;20245;-79
2022/03/30 07:10:42;;;;;;;19.65;7.30;;;18.50;99.90;;;;;;4244775;27;20205;-79
2022/03/30 07:12:46;;;;;;;19.85;7.03;;;18.60;99.00;;;;;;4243521;27;20213;-79
2022/03/30 07:14:49;;;;;;;12.15;6.72;;;18.70;98.70;;;;;;4244821;27;20220;-78
2022/03/30 07:16:51;;;;;;;10.32;5.88;;;18.70;98.60;;;;;;4232751;27;20209;-79
2022/03/30 07:18:55;;;;;;;8.63;6.20;;;18.70;98.60;;;;;;4243231;27;20561;-77
2022/03/30 07:20:58;;;;;;;12.85;6.82;;;18.80;97.90;;;;;;4242018;27;20256;-77
2022/03/30 07:23:02;;;;;;;11.77;6.53;;;18.80;98.70;;;;;;4240369;27;20209;-77
2022/03/30 07:25:05;;;;;;;10.38;6.50;;;18.80;98.60;;;;;;4241508;27;20282;-77
2022/03/30 07:27:08;;;;;;;12.15;6.45;;;18.70;98.30;;;;;;4244279;27;20689;-78
2022/03/30 07:29:10;;;;;;;10.65;6.28;;;18.70;98.10;;;;;;4240959;27;20353;-78
2022/03/30 07:31:13;;;;;;;10.32;6.68;;;18.70;98.10;;;;;;4235104;27;20262;-78
2022/03/30 07:33:17;;;;;;;11.15;6.25;;;18.80;98.10;;;;;;4229891;27;21459;-77
2022/03/30 07:35:21;;;;;;;12.77;6.82;;;18.90;98.30;;;;;;4237696;27;20213;-76
2022/03/30 07:37:23;;;;;;;12.27;6.57;;;18.90;98.20;;;;;;4237645;27;20217;-77
2022/03/30 07:39:27;;;;;;;11.88;6.32;;;18.90;98.00;;;;;;4239201;27;20205;-78
2022/03/30 07:41:29;;;;;;;11.15;6.88;;;19.00;97.90;;;;;;4241239;27;20205;-77
2022/03/30 07:43:32;;;;;;;10.10;5.85;;;19.10;98.20;;;;;;4241247;27;21133;-75
2022/03/30 07:45:34;;;;;;;10.30;6.20;;;19.10;97.90;;;;;;4238657;27;20231;-76
2022/03/30 07:47:37;;;;;;;8.25;6.28;;;19.10;98.00;;;;;;4241013;27;20241;-75
2022/03/30 07:49:39;;;;;;;10.18;6.80;;;19.10;97.70;;;;;;4239305;27;20258;-73
2022/03/30 07:51:41;;;;;;;14.50;6.78;;;19.10;97.90;;;;;;4236931;27;20225;-74
2022/03/30 07:53:44;;;;;;;9.90;6.40;;;19.00;98.30;;;;;;4241537;27;20737;-73
2022/03/30 07:55:48;;;;;;;14.30;6.95;;;19.10;98.10;;;;;;4240416;27;20301;-74
2022/03/30 07:57:50;;;;;;;10.50;6.43;;;19.10;98.00;;;;;;4239628;27;20297;-74
2022/03/30 07:59:53;;;;;;;11.10;6.50;;;19.10;97.90;;;;;;4240410;27;20217;-74
2022/03/30 08:01:58;;;;;;;14.07;6.00;;;19.10;97.80;;;;;;4240554;27;20216;-74
2022/03/30 08:04:00;;;;;;;9.23;6.03;;;19.10;97.70;;;;;;4238801;27;20737;-74
2022/03/30 08:06:02;;;;;;;11.13;6.40;;;19.20;97.90;;;;;;4238053;27;20234;-76
2022/03/30 08:08:07;;;;;;;9.73;6.13;;;19.20;97.70;;;;;;4238335;27;20817;-76
2022/03/30 08:10:10;;;;;;;11.10;6.85;;;19.20;97.70;;;;;;4240287;27;20217;-76
2022/03/30 08:12:15;;;;;;;12.70;6.50;;;19.20;97.70;;;;;;4242485;27;20217;-76
2022/03/30 08:14:17;;;;;;;12.52;5.53;;;19.20;97.70;;;;;;4237796;27;20217;-78
2022/03/30 08:16:20;;;;;;;12.18;5.97;;;19.30;98.10;;;;;;4238477;27;20655;-75
2022/03/30 08:18:22;;;;;;;12.40;6.32;;;19.10;97.90;;;;;;4241562;27;20249;-75
2022/03/30 08:22:45;;;;;;;9.93;6.05;;;19.10;98.40;;;;;;4240307;27;20193;-74
2022/03/30 08:24:47;;;;;;;11.02;6.10;;;19.20;98.30;;;;;;4234983;27;20677;-76
2022/03/30 08:26:50;;;;;;;10.55;6.00;;;19.30;98.20;;;;;;4239874;27;20250;-76
2022/03/30 08:28:54;;;;;;;9.63;5.72;;;19.30;98.00;;;;;;4235797;27;20212;-78
2022/03/30 08:30:57;;;;;;;10.52;5.93;;;19.30;98.10;;;;;;4235361;27;20572;-78
2022/03/30 08:33:00;;;;;;;11.50;6.00;;;19.30;97.90;;;;;;4237818;27;20233;-78
2022/03/30 08:35:06;;;;;;;10.23;5.63;;;19.40;98.10;;;;;;4236799;27;20212;-77
2022/03/30 08:37:09;;;;;;;10.43;5.85;;;19.30;97.80;;;;;;4237577;27;21531;-78
2022/03/30 08:39:12;;;;;;;10.50;5.80;;;19.30;97.80;;;;;;4242088;27;20221;-78
2022/03/30 08:41:14;;;;;;;11.90;5.80;;;19.40;97.90;;;;;;4240428;27;20641;-78
2022/03/30 08:43:17;;;;;;;10.50;6.22;;;19.40;97.90;;;;;;4235474;27;20627;-78
2022/03/30 08:45:21;;;;;;;9.68;5.75;;;19.40;97.80;;;;;;4238478;27;20216;-78
2022/03/30 08:47:23;;;;;;;10.57;6.03;;;19.40;97.80;;;;;;4241223;27;20772;-78
2022/03/30 08:49:33;;;;;;;10.52;6.18;;;19.40;97.80;;;;;;4241194;27;20258;-78
2022/03/30 08:51:40;;;;;;;7.40;5.47;;;19.50;97.80;;;;;;4240668;27;20262;-78
2022/03/30 08:53:42;;;;;;;9.07;5.57;;;19.40;97.80;;;;;;4237987;27;20214;-78
2022/03/30 08:55:44;;;;;;;12.68;6.55;;;19.50;97.80;;;;;;4239185;27;20591;-78
2022/03/30 08:57:47;;;;;;;8.02;5.45;;;19.50;97.80;;;;;;4239767;27;20243;-78
2022/03/30 09:00:05;;;;;;;8.10;5.15;;;19.50;97.90;;;;;;4239863;27;20277;-78
2022/03/30 09:02:10;;;;;;;13.35;6.28;;;19.40;98.30;;;;;;4239234;27;20213;-77
2022/03/30 09:04:13;;;;;;;10.90;6.40;;;19.50;98.20;;;;;;4239776;27;20250;-77
2022/03/30 09:06:30;;;;;;;12.00;6.30;;;19.50;98.50;;;;;;4242332;27;20629;-77
2022/03/30 09:08:32;;;;;;;10.23;6.30;;;19.60;98.00;;;;;;4238189;27;20285;-78
2022/03/30 09:10:35;;;;;;;7.95;5.45;;;19.60;97.80;;;;;;4239157;27;20217;-76
2022/03/30 09:12:38;;;;;;;8.95;5.93;;;19.60;98.00;;;;;;4237101;27;20501;-78
2022/03/30 09:14:42;;;;;;;10.70;5.30;;;19.50;98.50;;;;;;4234014;27;20213;-77
2022/03/30 09:16:47;;;;;;;7.80;5.47;;;19.50;98.60;;;;;;4233793;27;20263;-77
2022/03/30 09:19:06;;;;;;;9.10;5.78;;;19.50;98.20;;;;;;4235643;27;20213;-78
2022/03/30 09:21:09;;;;;;;11.82;6.22;;;19.60;98.20;;;;;;4239067;27;20222;-77
2022/03/30 09:23:13;;;;;;;12.95;5.97;;;19.60;97.90;;;;;;4241124;27;20217;-77
2022/03/30 09:25:17;;;;;;;8.85;5.90;;;19.70;98.00;;;;;;4234331;27;20201;-78
2022/03/30 09:27:22;;;;;;;9.70;5.97;;;19.70;97.90;;;;;;4238249;27;20250;-78
2022/03/30 09:29:27;;;;;;;10.15;6.40;;;19.70;97.90;;;;;;4243101;27;20213;-78
2022/03/30 09:31:30;;;;;;;10.95;6.60;;;19.70;97.90;;;;;;4235570;28;20279;-77
2022/03/30 09:33:33;;;;;;;9.77;5.95;;;19.80;98.00;;;;;;4220681;28;20217;-78
2022/03/30 09:35:40;;;;;;;12.13;5.00;;;19.80;98.00;;;;;;4225611;28;20556;-78
2022/03/30 09:37:43;;;;;;;10.55;5.43;;;19.70;98.20;;;;;;4219305;28;20209;-77
2022/03/30 09:39:45;;;;;;;8.68;5.30;;;19.70;98.20;;;;;;4219803;28;20272;-77
2022/03/30 09:41:50;;;;;;;11.40;5.43;;;19.70;98.00;;;;;;4218419;28;20210;-78
2022/03/30 09:44:03;;;;;;;11.10;6.43;;;19.70;97.90;;;;;;4222634;28;20239;-78
2022/03/30 09:46:08;;;;;;;13.55;6.78;;;19.70;97.70;;;;;;4218442;28;20209;-77
2022/03/30 09:48:12;;;;;;;13.68;5.75;;;19.60;98.00;;;;;;4215470;28;20230;-77
2022/03/30 09:50:15;;;;;;;8.70;5.78;;;19.70;97.90;;;;;;4216413;28;20263;-76
2022/03/30 09:52:20;;;;;;;10.32;6.47;;;19.70;97.90;;;;;;4224903;27;20218;-76
2022/03/30 09:54:37;;;;;;;9.52;6.43;;;19.80;98.00;;;;;;4220839;28;21593;-77
2022/03/30 09:56:43;;;;;;;15.00;6.47;;;19.80;97.90;;;;;;4221265;28;20596;-77
2022/03/30 09:58:46;;;;;;;11.30;5.90;;;19.90;98.00;;;;;;4227938;28;20205;-78
2022/03/30 10:01:08;;;;;;;7.35;5.82;;;19.90;97.70;;;;;;4217403;28;20219;-75
2022/03/30 10:03:10;;;;;;;10.77;6.43;;;19.80;97.70;;;;;;4222756;28;20226;-77
2022/03/30 10:05:15;;;;;;;12.23;5.85;;;19.90;97.80;;;;;;4225134;28;20268;-77
2022/03/30 10:07:21;;;;;;;9.13;4.97;;;19.90;98.00;;;;;;4218205;28;20210;-77
2022/03/30 10:09:24;;;;;;;9.63;5.70;;;19.90;97.90;;;;;;4225040;28;20717;-76
2022/03/30 10:11:28;;;;;;;11.32;4.85;;;20.00;97.80;;;;;;4224684;28;20213;-77
2022/03/30 10:13:31;;;;;;;10.07;5.50;;;20.10;98.00;;;;;;4224501;28;20210;-77
2022/03/30 10:15:33;;;;;;;8.68;5.45;;;20.30;97.70;;;;;;4220643;28;20214;-76
2022/03/30 10:17:37;;;;;;;9.63;5.10;;;20.30;97.80;;;;;;4230937;28;20213;-76
2022/03/30 10:19:42;;;;;;;8.05;5.18;;;20.40;97.40;;;;;;4221654;28;20221;-76
2022/03/30 10:21:54;;;;;;;8.95;5.32;;;20.60;97.10;;;;;;4220242;28;20723;-76
2022/03/30 10:24:34;;;;;;;8.95;5.72;;;20.80;97.20;;;;;;4222867;28;20624;-77
2022/03/30 10:26:49;;;;;;;9.77;5.40;;;20.90;96.70;;;;;;4211428;28;20654;-74
2022/03/30 10:29:01;;;;;;;12.95;5.63;;;20.80;96.50;;;;;;4222410;28;20226;-74
2022/03/30 10:31:04;;;;;;;9.25;5.75;;;21.00;96.20;;;;;;4222683;27;20218;-73
2022/03/30 10:33:06;;;;;;;8.00;5.00;;;21.00;96.20;;;;;;4226466;28;20989;-72
2022/03/30 10:35:11;;;;;;;9.15;5.47;;;21.00;96.20;;;;;;4226774;27;20217;-74
2022/03/30 10:37:13;;;;;;;8.77;4.90;;;21.00;96.20;;;;;;4225631;28;20469;-74
2022/03/30 10:39:26;;;;;;;9.55;5.97;;;21.20;96.10;;;;;;4225968;27;20742;-73
2022/03/30 10:41:51;;;;;;;9.77;5.68;;;21.20;96.10;;;;;;4222909;28;20213;-73
2022/03/30 10:43:54;;;;;;;6.07;4.90;;;21.20;95.90;;;;;;4223079;28;20217;-73
2022/03/30 10:45:58;;;;;;;8.63;5.90;;;21.30;95.90;;;;;;4225829;28;20715;-73
2022/03/30 10:48:09;;;;;;;10.27;5.25;;;21.20;95.90;;;;;;4226912;28;20615;-73
2022/03/30 10:50:35;;;;;;;8.02;4.95;;;21.20;95.80;;;;;;4227212;27;20270;-74
2022/03/30 10:52:40;;;;;;;8.95;5.13;;;21.30;95.80;;;;;;4226683;28;20274;-74